Time;durP1;ratioP1;P1;durP2;ratioP2;P2;SDS_P1;SDS_P2;PMS_P1;PMS_P2;Temp;Humidity;BMP_temperature;BMP_pressure;BME280_temperature;BME280_humidity;BME280_pressure;Samples;Min_cycle;Max_cycle;Signal;HPM_P1;HPM_P2
2021/03/15 00:01:55;;;;;;;15.23;11.87;;;3.10;1.00;;;;;;4854500;28;20583;-88
2021/03/15 00:04:17;;;;;;;15.17;11.67;;;3.10;1.00;;;;;;4817525;28;20242;-79
2021/03/15 00:06:39;;;;;;;15.00;11.03;;;3.10;66.90;;;;;;4799596;28;20265;-79
2021/03/15 00:09:02;;;;;;;15.47;10.83;;;3.10;99.90;;;;;;4806559;28;20192;-83
2021/03/15 00:11:24;;;;;;;14.57;11.20;;;3.20;99.90;;;;;;4800195;28;20208;-87
2021/03/15 00:13:47;;;;;;;15.70;11.43;;;3.20;99.90;;;;;;4818901;28;20245;-85
2021/03/15 00:16:09;;;;;;;15.90;11.90;;;3.30;1.00;;;;;;4818512;28;20188;-88
2021/03/15 00:18:31;;;;;;;16.10;11.43;;;3.30;99.90;;;;;;4816188;28;20200;-86
2021/03/15 00:20:53;;;;;;;17.00;11.60;;;3.30;99.90;;;;;;4818748;28;20187;-87
2021/03/15 00:23:16;;;;;;;16.00;11.43;;;3.40;43.00;;;;;;4801246;28;20603;-88
2021/03/15 00:25:38;;;;;;;15.83;11.50;;;3.40;1.00;;;;;;4799546;28;20577;-83
2021/03/15 00:28:00;;;;;;;15.50;10.33;;;3.40;1.00;;;;;;4812861;28;20316;-85
2021/03/15 00:30:24;;;;;;;15.13;10.77;;;3.40;1.00;;;;;;4817070;28;20203;-84
2021/03/15 00:32:47;;;;;;;15.63;10.53;;;3.50;1.00;;;;;;4808419;28;20225;-74
2021/03/15 00:35:11;;;;;;;15.20;10.60;;;3.50;99.90;;;;;;4818302;28;20260;-84
2021/03/15 00:37:33;;;;;;;13.00;9.70;;;3.50;99.90;;;;;;4806984;28;20274;-85
2021/03/15 00:39:55;;;;;;;12.83;9.23;;;3.60;1.00;;;;;;4781782;28;20196;-87
2021/03/15 00:42:18;;;;;;;14.33;11.17;;;3.60;1.00;;;;;;4808423;28;20229;-80
2021/03/15 00:44:40;;;;;;;14.80;11.33;;;3.60;99.90;;;;;;4782657;28;20260;-85
2021/03/15 00:47:04;;;;;;;13.57;10.77;;;3.60;99.90;;;;;;4798153;28;20232;-81
2021/03/15 00:49:27;;;;;;;15.23;10.33;;;3.60;99.90;;;;;;4798326;28;20234;-85
2021/03/15 00:51:49;;;;;;;12.27;8.83;;;3.60;99.90;;;;;;4797568;28;20204;-85
2021/03/15 00:54:12;;;;;;;14.57;9.83;;;3.60;99.90;;;;;;4807701;28;20203;-85
2021/03/15 00:56:35;;;;;;;14.83;10.50;;;3.60;12.20;;;;;;4817124;28;20211;-85
2021/03/15 00:58:57;;;;;;;14.90;10.43;;;3.50;30.00;;;;;;4800279;28;20721;-87
2021/03/15 01:01:21;;;;;;;14.17;10.40;;;3.30;18.70;;;;;;4798360;28;20665;-82
2021/03/15 01:03:49;;;;;;;14.33;10.73;;;3.40;46.50;;;;;;4800802;28;20192;-81
2021/03/15 01:06:12;;;;;;;18.60;14.20;;;3.30;99.90;;;;;;4811309;28;20208;-83
2021/03/15 01:08:34;;;;;;;16.10;11.80;;;3.20;99.90;;;;;;4814112;28;20195;-86
2021/03/15 01:10:58;;;;;;;16.20;11.90;;;3.20;1.00;;;;;;4798658;28;20204;-86
2021/03/15 01:13:21;;;;;;;14.37;10.70;;;3.10;1.00;;;;;;4809269;28;20228;-83
2021/03/15 01:15:46;;;;;;;14.80;10.77;;;3.00;99.90;;;;;;4816973;28;20203;-86
2021/03/15 01:18:08;;;;;;;14.90;11.00;;;3.00;99.90;;;;;;4808309;28;20251;-87
2021/03/15 01:20:33;;;;;;;15.67;11.33;;;3.00;1.00;;;;;;4802558;28;20226;-74
2021/03/15 01:22:56;;;;;;;14.30;10.27;;;3.00;1.00;;;;;;4797219;28;20241;-78
2021/03/15 01:25:21;;;;;;;15.83;10.93;;;3.00;99.90;;;;;;4800933;28;20215;-83
2021/03/15 01:27:43;;;;;;;13.00;10.07;;;3.10;1.00;;;;;;4808339;28;20292;-86
2021/03/15 01:30:10;;;;;;;15.10;12.00;;;3.10;1.00;;;;;;4919829;28;20195;-88
2021/03/15 01:32:32;;;;;;;16.17;11.87;;;3.10;99.90;;;;;;4816646;28;20735;-76
2021/03/15 01:34:54;;;;;;;14.40;10.87;;;3.10;1.00;;;;;;4802118;28;20200;-85
2021/03/15 01:37:17;;;;;;;15.43;10.97;;;3.20;1.00;;;;;;4797900;28;20203;-87
2021/03/15 01:39:39;;;;;;;13.77;10.23;;;3.20;1.00;;;;;;4803886;28;20196;-83
2021/03/15 01:42:01;;;;;;;14.23;9.80;;;3.20;1.00;;;;;;4905972;28;20184;-80
2021/03/15 01:44:24;;;;;;;13.80;9.50;;;3.20;1.00;;;;;;4803924;28;20237;-87
2021/03/15 01:46:46;;;;;;;13.07;10.17;;;3.20;1.00;;;;;;4799044;28;20657;-87
2021/03/15 01:49:08;;;;;;;13.97;10.37;;;3.30;1.00;;;;;;4804282;28;20274;-87
2021/03/15 01:51:30;;;;;;;14.53;11.47;;;3.30;1.00;;;;;;4907139;28;20188;-86
2021/03/15 01:53:53;;;;;;;16.47;12.60;;;3.30;1.00;;;;;;4800643;28;20211;-83
2021/03/15 01:56:16;;;;;;;13.73;10.53;;;3.40;99.90;;;;;;4815316;28;20195;-86
2021/03/15 01:58:38;;;;;;;14.67;10.17;;;3.40;1.00;;;;;;4814284;28;20184;-86
2021/03/15 02:01:00;;;;;;;13.33;9.63;;;3.40;1.00;;;;;;4802553;28;20658;-86
2021/03/15 02:03:22;;;;;;;13.20;9.57;;;3.40;11.60;;;;;;4797608;28;20237;-85
2021/03/15 02:05:44;;;;;;;13.00;10.60;;;3.40;9.50;;;;;;4810035;28;20298;-88
2021/03/15 02:08:08;;;;;;;12.03;9.80;;;3.40;1.00;;;;;;4802986;28;20200;-88
2021/03/15 02:10:33;;;;;;;13.50;10.27;;;3.50;99.90;;;;;;4811492;28;20200;-82
2021/03/15 02:13:21;;;;;;;14.00;9.97;;;3.50;99.90;;;;;;4808423;28;20292;-88
2021/03/15 02:15:55;;;;;;;15.17;11.83;;;3.50;99.90;;;;;;4815698;28;20552;-85
2021/03/15 02:18:25;;;;;;;15.67;12.33;;;3.50;1.00;;;;;;4808389;28;20546;-77
2021/03/15 02:21:23;;;;;;;15.33;12.10;;;3.50;1.00;;;;;;4797495;28;20204;-74
2021/03/15 02:23:52;;;;;;;14.33;11.53;;;3.40;1.00;;;;;;4796709;28;20192;-86
2021/03/15 02:26:38;;;;;;;15.87;12.20;;;3.40;1.00;;;;;;4797126;28;20231;-87
2021/03/15 02:29:37;;;;;;;16.23;11.93;;;3.50;1.00;;;;;;4798085;28;20533;-80
2021/03/15 02:32:20;;;;;;;17.47;11.97;;;3.40;1.00;;;;;;4803922;28;20617;-88
2021/03/15 02:35:06;;;;;;;14.60;11.10;;;3.40;1.00;;;;;;4817028;28;20183;-88
2021/03/15 02:37:34;;;;;;;14.43;11.70;;;3.40;1.00;;;;;;4814277;28;20200;-87
2021/03/15 02:39:59;;;;;;;15.03;12.97;;;3.30;99.90;;;;;;4815557;28;20199;-87
2021/03/15 02:42:23;;;;;;;16.83;13.20;;;3.40;99.90;;;;;;4812014;28;20602;-78
2021/03/15 02:44:50;;;;;;;15.23;11.90;;;3.40;1.00;;;;;;4814499;28;20623;-83
2021/03/15 02:47:18;;;;;;;13.80;10.30;;;3.40;99.90;;;;;;4899812;28;20215;-86
2021/03/15 02:49:43;;;;;;;14.23;10.17;;;3.40;99.90;;;;;;4803211;28;20196;-82
2021/03/15 02:52:08;;;;;;;13.33;9.50;;;3.40;99.90;;;;;;4806612;28;21016;-84
2021/03/15 02:54:32;;;;;;;15.53;10.13;;;3.50;1.00;;;;;;4815868;28;20214;-84
2021/03/15 02:56:56;;;;;;;12.03;10.43;;;3.50;99.90;;;;;;4815452;28;20192;-84
2021/03/15 02:59:21;;;;;;;14.03;10.03;;;3.40;1.00;;;;;;4808849;28;20227;-83
2021/03/15 03:01:45;;;;;;;15.00;9.93;;;3.50;1.00;;;;;;4805370;28;20707;-83
2021/03/15 03:04:09;;;;;;;15.13;10.70;;;3.50;1.00;;;;;;4798759;28;20237;-86
2021/03/15 03:06:33;;;;;;;13.50;10.87;;;3.50;1.00;;;;;;4796355;28;20337;-87
2021/03/15 03:08:58;;;;;;;13.97;10.97;;;3.50;1.00;;;;;;4811241;28;20229;-85
2021/03/15 03:11:26;;;;;;;13.83;9.50;;;3.50;1.00;;;;;;4815785;28;20207;-79
2021/03/15 03:13:52;;;;;;;14.07;9.73;;;3.50;99.90;;;;;;4815871;28;20229;-86
2021/03/15 03:16:14;;;;;;;12.50;9.40;;;3.50;99.90;;;;;;4816208;28;20184;-87
2021/03/15 03:18:39;;;;;;;14.60;9.57;;;3.50;99.90;;;;;;4805472;28;20248;-86
2021/03/15 03:21:02;;;;;;;12.90;10.40;;;3.50;99.90;;;;;;4800505;28;20238;-87
2021/03/15 03:23:28;;;;;;;16.17;10.50;;;3.50;1.00;;;;;;4819281;28;20611;-87
2021/03/15 03:25:54;;;;;;;14.03;10.53;;;3.50;1.00;;;;;;4817764;28;20242;-85
2021/03/15 03:28:18;;;;;;;11.50;9.70;;;3.40;1.00;;;;;;4818176;28;20692;-80
2021/03/15 03:30:41;;;;;;;14.13;10.00;;;3.40;1.00;;;;;;4818017;28;20200;-73
2021/03/15 03:33:07;;;;;;;11.70;9.53;;;3.50;99.90;;;;;;4811396;28;20217;-83
2021/03/15 03:35:29;;;;;;;10.97;9.30;;;3.40;1.00;;;;;;4818884;28;20191;-82
2021/03/15 03:37:51;;;;;;;11.97;9.87;;;3.40;1.00;;;;;;4803096;28;20198;-87
2021/03/15 03:40:15;;;;;;;12.27;9.87;;;3.50;1.00;;;;;;4807316;28;20242;-87
2021/03/15 03:42:38;;;;;;;12.70;9.40;;;3.40;1.00;;;;;;4835953;28;20318;-82
2021/03/15 03:45:01;;;;;;;15.53;9.40;;;3.40;1.00;;;;;;4807520;28;20735;-87
2021/03/15 03:47:23;;;;;;;12.80;9.57;;;3.40;1.00;;;;;;4794651;28;20217;-85
2021/03/15 03:49:46;;;;;;;11.00;9.23;;;3.40;1.00;;;;;;4799568;28;20184;-85
2021/03/15 03:52:09;;;;;;;11.77;9.83;;;3.40;1.00;;;;;;4800647;28;20249;-88
2021/03/15 03:54:37;;;;;;;11.37;9.20;;;3.40;1.00;;;;;;4803269;28;20195;-78
2021/03/15 03:57:02;;;;;;;13.17;10.27;;;3.50;1.00;;;;;;4818867;28;20240;-84
2021/03/15 03:59:28;;;;;;;13.93;10.23;;;3.50;1.00;;;;;;4901208;28;20200;-85
2021/03/15 04:01:56;;;;;;;12.23;9.37;;;3.50;1.00;;;;;;4797624;28;20689;-87
2021/03/15 04:04:22;;;;;;;12.03;9.53;;;3.50;1.00;;;;;;4804948;28;20180;-87
2021/03/15 04:06:46;;;;;;;13.50;10.10;;;3.50;1.00;;;;;;4817357;28;20690;-88
2021/03/15 04:09:13;;;;;;;13.03;10.37;;;3.50;1.00;;;;;;4817448;28;20881;-88
2021/03/15 04:11:36;;;;;;;13.07;10.63;;;3.50;1.00;;;;;;4802494;28;20184;-88
2021/03/15 04:13:59;;;;;;;12.87;10.70;;;3.40;1.00;;;;;;4799976;28;20711;-87
2021/03/15 04:16:27;;;;;;;13.63;11.10;;;3.40;1.00;;;;;;4817523;28;20203;-80
2021/03/15 04:18:53;;;;;;;13.07;10.77;;;3.40;1.00;;;;;;4817882;28;20268;-88
2021/03/15 04:21:19;;;;;;;17.17;12.83;;;3.40;1.00;;;;;;4800262;28;20265;-80
2021/03/15 04:23:45;;;;;;;19.63;14.03;;;3.40;1.00;;;;;;4786176;28;20238;-86
2021/03/15 04:26:08;;;;;;;19.03;13.17;;;3.40;99.90;;;;;;4818022;28;20215;-81
2021/03/15 04:28:34;;;;;;;18.87;13.17;;;3.40;99.90;;;;;;4818264;28;20657;-86
2021/03/15 04:30:56;;;;;;;20.03;12.87;;;3.40;1.00;;;;;;4804561;28;20195;-87
2021/03/15 04:33:20;;;;;;;17.63;12.80;;;3.40;1.00;;;;;;4827497;28;20574;-82
2021/03/15 04:35:43;;;;;;;18.87;13.93;;;3.40;1.00;;;;;;4804095;28;20521;-86
2021/03/15 04:38:08;;;;;;;19.27;13.73;;;3.40;1.00;;;;;;4798575;28;20212;-85
2021/03/15 04:40:31;;;;;;;18.70;14.00;;;3.40;1.00;;;;;;4801829;28;20281;-85
2021/03/15 04:42:59;;;;;;;19.63;14.13;;;3.30;1.00;;;;;;4786018;28;20262;-86
2021/03/15 04:45:22;;;;;;;17.10;13.07;;;3.30;1.00;;;;;;4813429;28;20249;-88
2021/03/15 04:47:45;;;;;;;17.57;13.30;;;3.30;1.00;;;;;;4810211;28;20236;-84
2021/03/15 04:50:11;;;;;;;16.33;11.57;;;3.30;1.00;;;;;;4800568;28;20534;-85
2021/03/15 04:52:34;;;;;;;16.97;12.87;;;3.30;1.00;;;;;;4807605;28;20196;-85
2021/03/15 04:54:56;;;;;;;15.77;12.53;;;3.30;21.10;;;;;;4800093;28;20587;-88
2021/03/15 04:57:18;;;;;;;14.13;11.30;;;3.30;99.90;;;;;;4799511;28;20552;-83
2021/03/15 04:59:42;;;;;;;18.90;15.53;;;3.30;99.90;;;;;;4811750;28;20211;-84
2021/03/15 05:02:05;;;;;;;16.97;14.90;;;3.20;99.90;;;;;;4804742;28;20579;-86
2021/03/15 05:04:29;;;;;;;16.43;14.53;;;3.30;99.90;;;;;;4799818;28;20230;-88
2021/03/15 05:06:53;;;;;;;16.07;12.77;;;3.30;99.90;;;;;;4782796;28;20657;-85
2021/03/15 05:09:16;;;;;;;17.13;13.17;;;3.30;99.90;;;;;;4804409;28;20240;-82
2021/03/15 05:11:41;;;;;;;14.10;11.47;;;3.40;99.90;;;;;;4816545;28;20260;-84
2021/03/15 05:14:05;;;;;;;17.07;11.83;;;3.30;99.90;;;;;;4814265;28;20184;-87
2021/03/15 05:16:29;;;;;;;17.77;12.33;;;3.30;99.90;;;;;;4817810;28;20191;-88
2021/03/15 05:18:54;;;;;;;15.90;12.27;;;3.30;99.90;;;;;;4783787;28;20200;-80
2021/03/15 05:21:16;;;;;;;16.57;12.83;;;3.30;99.90;;;;;;4815288;28;20188;-81
2021/03/15 05:23:40;;;;;;;17.07;12.80;;;3.30;99.90;;;;;;4799525;28;20658;-89
2021/03/15 05:26:03;;;;;;;17.20;13.07;;;3.30;99.90;;;;;;4816024;28;20199;-79
2021/03/15 05:28:27;;;;;;;16.53;12.90;;;3.30;99.90;;;;;;4818454;28;20240;-85
2021/03/15 05:30:50;;;;;;;19.03;15.07;;;3.30;99.90;;;;;;4811156;28;20214;-79
2021/03/15 05:33:14;;;;;;;18.03;12.97;;;3.30;1.00;;;;;;4798560;28;20638;-87
2021/03/15 05:35:37;;;;;;;19.10;13.47;;;3.30;1.00;;;;;;4797658;28;20730;-87
2021/03/15 05:38:00;;;;;;;14.27;12.13;;;3.30;1.00;;;;;;4799227;28;20704;-86
2021/03/15 05:40:25;;;;;;;17.47;13.50;;;3.30;1.00;;;;;;4816082;28;20236;-76
2021/03/15 05:43:28;;;;;;;17.23;13.63;;;3.40;1.00;;;;;;4809041;28;20233;-73
2021/03/15 05:46:45;;;;;;;19.30;15.10;;;3.40;1.00;;;;;;4797501;28;20196;-87
2021/03/15 05:49:44;;;;;;;24.43;18.10;;;3.40;1.00;;;;;;4800625;28;20774;-87
2021/03/15 05:52:09;;;;;;;22.83;16.50;;;3.40;1.00;;;;;;4798501;28;20204;-88
2021/03/15 05:55:10;;;;;;;20.00;15.53;;;3.50;1.00;;;;;;4798050;28;20273;-85
2021/03/15 05:58:07;;;;;;;22.00;16.80;;;3.50;1.00;;;;;;4807296;28;20290;-74
2021/03/15 06:00:36;;;;;;;22.03;16.07;;;3.60;1.00;;;;;;4800260;28;20227;-77
2021/03/15 06:03:10;;;;;;;20.73;16.57;;;3.70;1.00;;;;;;4816975;28;20176;-86
2021/03/15 06:05:36;;;;;;;21.33;15.67;;;3.80;1.00;;;;;;4811440;28;20196;-84
2021/03/15 06:08:03;;;;;;;18.63;14.73;;;3.90;1.00;;;;;;4791165;28;20685;-87
2021/03/15 06:10:41;;;;;;;21.63;16.17;;;4.00;1.00;;;;;;4809993;28;20203;-86
2021/03/15 06:13:10;;;;;;;17.93;15.20;;;4.10;99.90;;;;;;4813519;28;20249;-81
2021/03/15 06:15:37;;;;;;;19.50;14.73;;;4.20;99.90;;;;;;4798498;28;20719;-86
2021/03/15 06:18:02;;;;;;;17.67;14.30;;;4.20;1.00;;;;;;4800216;28;20249;-87
2021/03/15 06:20:25;;;;;;;16.40;13.27;;;4.30;21.30;;;;;;4819008;28;20203;-84
2021/03/15 06:22:47;;;;;;;13.87;11.50;;;4.40;99.90;;;;;;4817808;28;20200;-86
2021/03/15 06:25:12;;;;;;;12.33;10.67;;;4.50;1.00;;;;;;4815998;28;20676;-82
2021/03/15 06:27:36;;;;;;;11.30;9.13;;;4.50;1.00;;;;;;4801944;28;20208;-86
2021/03/15 06:29:59;;;;;;;11.00;9.47;;;4.60;99.90;;;;;;4801710;28;20196;-85
2021/03/15 06:32:21;;;;;;;9.40;7.77;;;4.70;99.90;;;;;;4804909;28;20254;-83
2021/03/15 06:34:44;;;;;;;11.20;8.70;;;4.70;99.90;;;;;;4797868;28;20200;-80
2021/03/15 06:37:06;;;;;;;11.43;9.67;;;4.80;99.90;;;;;;4809099;28;20218;-85
2021/03/15 06:39:29;;;;;;;11.73;8.97;;;4.90;36.00;;;;;;4783260;28;20242;-85
2021/03/15 06:41:56;;;;;;;10.23;9.17;;;5.00;1.00;;;;;;4797569;28;20208;-86
2021/03/15 06:44:18;;;;;;;9.40;8.40;;;5.00;1.00;;;;;;4815539;28;20192;-84
2021/03/15 06:46:42;;;;;;;10.17;9.07;;;5.10;1.00;;;;;;4803788;28;20204;-83
2021/03/15 06:49:04;;;;;;;10.97;9.20;;;5.20;1.00;;;;;;4802977;28;20195;-84
2021/03/15 06:51:26;;;;;;;11.30;8.77;;;5.20;99.90;;;;;;4907323;28;20534;-84
2021/03/15 06:53:48;;;;;;;12.60;10.73;;;5.20;99.90;;;;;;4896110;28;20189;-86
2021/03/15 06:56:12;;;;;;;17.73;13.03;;;5.30;1.00;;;;;;4783787;28;20239;-80
2021/03/15 06:58:34;;;;;;;15.10;13.23;;;5.50;1.00;;;;;;4801217;28;20265;-81
2021/03/15 07:01:14;;;;;;;14.63;12.00;;;5.70;99.90;;;;;;4799772;28;20244;-84
2021/03/15 07:03:38;;;;;;;13.47;10.67;;;5.80;99.90;;;;;;4802007;28;20704;-86
2021/03/15 07:06:01;;;;;;;11.67;10.47;;;6.00;99.90;;;;;;4799580;28;20222;-86
2021/03/15 07:08:23;;;;;;;11.07;9.87;;;6.20;99.90;;;;;;4809251;28;20280;-73
2021/03/15 07:10:46;;;;;;;9.17;8.23;;;6.40;1.00;;;;;;4818351;28;20200;-86
2021/03/15 07:13:10;;;;;;;8.63;7.70;;;6.60;1.00;;;;;;4820293;28;20223;-86
2021/03/15 07:15:33;;;;;;;9.37;7.23;;;6.70;1.00;;;;;;4810860;28;20239;-78
2021/03/15 07:18:10;;;;;;;8.93;7.50;;;6.90;1.00;;;;;;4801254;28;20222;-84
2021/03/15 07:20:42;;;;;;;8.37;6.93;;;7.10;99.90;;;;;;4910305;28;20275;-80
2021/03/15 07:23:04;;;;;;;8.53;7.13;;;7.40;99.90;;;;;;4808089;28;20229;-86
2021/03/15 07:25:33;;;;;;;7.90;7.03;;;7.50;99.90;;;;;;4801899;28;20254;-85
2021/03/15 07:27:55;;;;;;;8.40;6.80;;;8.00;99.90;;;;;;4819544;28;20627;-86
2021/03/15 07:30:33;;;;;;;7.17;6.47;;;8.30;99.90;;;;;;4819420;28;20187;-83
2021/03/15 07:32:55;;;;;;;3.97;3.57;;;8.60;15.00;;;;;;4817383;28;20203;-83
2021/03/15 07:35:22;;;;;;;3.07;2.77;;;9.00;1.00;;;;;;4808339;28;20203;-81
2021/03/15 07:37:45;;;;;;;3.10;2.80;;;9.40;1.00;;;;;;4815677;28;20213;-87
2021/03/15 07:40:09;;;;;;;3.03;2.73;;;9.60;1.00;;;;;;4818243;28;20196;-88
2021/03/15 07:42:31;;;;;;;2.83;2.53;;;9.90;1.00;;;;;;4815559;28;20253;-77
2021/03/15 07:44:53;;;;;;;2.60;2.37;;;10.20;1.00;;;;;;4818696;28;20233;-80
2021/03/15 07:47:26;;;;;;;2.53;2.33;;;10.40;1.00;;;;;;4918743;28;20204;-77
2021/03/15 07:49:58;;;;;;;2.70;2.50;;;10.70;1.00;;;;;;4818759;28;20179;-83
2021/03/15 07:52:20;;;;;;;2.60;2.40;;;10.80;1.00;;;;;;4809745;28;20188;-78
2021/03/15 07:54:45;;;;;;;2.80;2.60;;;10.80;1.00;;;;;;4799220;28;20234;-86
2021/03/15 07:57:19;;;;;;;2.53;2.33;;;10.80;1.00;;;;;;4801145;28;20294;-78
2021/03/15 07:59:41;;;;;;;3.57;3.27;;;10.70;1.00;;;;;;4917238;28;20267;-76
2021/03/15 08:02:04;;;;;;;2.80;2.60;;;10.60;1.00;;;;;;4816293;28;20219;-84
2021/03/15 08:04:26;;;;;;;2.77;2.57;;;10.60;1.00;;;;;;4808364;28;20220;-76
2021/03/15 08:06:49;;;;;;;3.20;2.93;;;10.70;1.00;;;;;;4811436;28;20188;-82
2021/03/15 08:09:11;;;;;;;3.07;2.67;;;10.70;1.00;;;;;;4800379;28;20204;-89
2021/03/15 08:11:34;;;;;;;3.17;2.87;;;10.70;1.00;;;;;;4802615;28;20200;-82
2021/03/15 08:14:01;;;;;;;3.67;3.20;;;11.00;1.00;;;;;;4817850;28;20249;-85
2021/03/15 08:16:24;;;;;;;3.50;2.90;;;11.00;1.00;;;;;;4816083;28;20192;-73
2021/03/15 08:18:48;;;;;;;3.07;2.77;;;11.10;1.00;;;;;;4816040;28;20682;-86
2021/03/15 08:21:12;;;;;;;3.10;2.60;;;11.30;1.00;;;;;;4815787;28;20265;-81
2021/03/15 08:23:40;;;;;;;2.87;2.60;;;11.30;1.00;;;;;;4803360;28;20208;-82
2021/03/15 08:26:05;;;;;;;2.83;2.63;;;11.20;1.00;;;;;;4799581;28;20238;-73
2021/03/15 08:28:30;;;;;;;2.77;2.50;;;11.20;1.00;;;;;;4800221;28;20273;-84
2021/03/15 08:30:55;;;;;;;2.37;2.17;;;11.30;1.00;;;;;;4811519;28;20211;-79
2021/03/15 08:33:18;;;;;;;2.87;2.40;;;11.50;1.00;;;;;;4817915;28;20761;-78
2021/03/15 08:35:41;;;;;;;2.33;2.13;;;11.70;1.00;;;;;;4811739;28;20586;-79
2021/03/15 08:38:04;;;;;;;1.97;1.87;;;12.00;1.00;;;;;;4799119;28;20249;-79
2021/03/15 08:40:52;;;;;;;2.17;2.07;;;12.20;1.00;;;;;;4808472;28;20191;-84
2021/03/15 08:43:31;;;;;;;2.10;1.77;;;12.30;1.00;;;;;;4806623;28;20188;-84
2021/03/15 08:45:55;;;;;;;1.77;1.67;;;12.10;1.00;;;;;;4795733;28;20200;-86
2021/03/15 08:48:18;;;;;;;1.77;1.67;;;11.80;1.00;;;;;;4813163;28;20211;-74
2021/03/15 08:50:45;;;;;;;1.93;1.83;;;11.40;1.00;;;;;;4817744;28;20516;-88
2021/03/15 08:53:08;;;;;;;2.80;2.07;;;11.10;1.00;;;;;;4800115;28;20208;-76
2021/03/15 08:55:48;;;;;;;2.17;1.97;;;10.90;1.00;;;;;;4783899;28;20266;-86
2021/03/15 08:58:39;;;;;;;2.40;2.20;;;10.50;1.00;;;;;;4799570;28;20208;-83
2021/03/15 09:01:02;;;;;;;2.43;2.27;;;10.40;1.00;;;;;;4816269;28;20219;-81
2021/03/15 09:03:49;;;;;;;6.90;6.00;;;10.30;1.00;;;;;;4812151;28;20234;-86
2021/03/15 09:06:11;;;;;;;3.30;3.00;;;10.30;1.00;;;;;;4798857;28;20238;-88
2021/03/15 09:08:59;;;;;;;2.63;2.43;;;10.40;1.00;;;;;;4797291;28;20254;-77
2021/03/15 09:11:45;;;;;;;2.17;1.97;;;10.90;1.00;;;;;;4799433;28;20646;-87
2021/03/15 09:14:35;;;;;;;2.20;2.00;;;12.20;1.00;;;;;;4816779;28;20734;-85
2021/03/15 09:16:59;;;;;;;2.03;1.87;;;12.80;1.00;;;;;;4817182;28;20233;-84
2021/03/15 09:19:22;;;;;;;2.20;2.00;;;12.60;1.00;;;;;;4804542;28;20236;-77
2021/03/15 09:21:56;;;;;;;1.87;1.73;;;12.30;1.00;;;;;;4802143;28;20192;-87
2021/03/15 09:24:38;;;;;;;1.97;1.83;;;11.90;1.00;;;;;;4802401;28;20193;-86
2021/03/15 09:27:00;;;;;;;2.33;2.13;;;11.50;1.00;;;;;;4918948;28;20225;-85
2021/03/15 09:29:22;;;;;;;2.23;2.10;;;11.10;1.00;;;;;;4911268;28;20237;-81
2021/03/15 09:31:58;;;;;;;2.93;2.53;;;10.80;1.00;;;;;;4804869;28;20214;-85
2021/03/15 09:34:20;;;;;;;4.90;2.50;;;10.60;1.00;;;;;;4792910;28;20192;-82
2021/03/15 09:36:43;;;;;;;2.90;2.47;;;10.50;1.00;;;;;;4856440;28;20201;-74
2021/03/15 09:39:06;;;;;;;2.13;1.97;;;10.30;1.00;;;;;;4839230;28;20200;-80
2021/03/15 09:41:29;;;;;;;2.20;2.10;;;10.30;1.00;;;;;;4800036;28;20192;-82
2021/03/15 09:43:52;;;;;;;2.03;1.93;;;10.30;1.00;;;;;;4815541;28;20796;-83
2021/03/15 09:46:15;;;;;;;2.20;2.00;;;10.40;1.00;;;;;;4803356;28;20188;-89
2021/03/15 09:48:39;;;;;;;1.90;1.77;;;10.60;1.00;;;;;;4797742;28;20292;-85
2021/03/15 09:51:05;;;;;;;2.17;1.90;;;10.90;1.00;;;;;;4808369;28;20191;-79
2021/03/15 09:53:46;;;;;;;1.67;1.57;;;11.20;1.00;;;;;;4817854;28;20584;-91
2021/03/15 09:56:14;;;;;;;1.77;1.67;;;11.60;1.00;;;;;;4913859;28;20203;-87
2021/03/15 09:58:41;;;;;;;2.00;1.53;;;11.80;1.00;;;;;;4872706;28;20645;-87
2021/03/15 10:01:11;;;;;;;1.93;1.77;;;12.10;1.00;;;;;;4801427;28;20265;-86
2021/03/15 10:03:54;;;;;;;1.47;1.37;;;12.10;1.00;;;;;;4817195;28;20180;-87
2021/03/15 10:06:29;;;;;;;1.37;1.27;;;12.20;1.00;;;;;;4816794;28;20172;-83
2021/03/15 10:09:10;;;;;;;1.67;1.57;;;12.20;1.00;;;;;;4818536;28;20548;-89
2021/03/15 10:11:43;;;;;;;1.53;1.43;;;12.30;1.00;;;;;;4816148;28;20654;-89
2021/03/15 10:14:24;;;;;;;1.40;1.30;;;12.30;1.00;;;;;;4808560;28;20221;-88
2021/03/15 10:17:21;;;;;;;1.33;1.23;;;12.80;1.00;;;;;;4804397;28;20187;-87
2021/03/15 10:19:58;;;;;;;1.43;1.33;;;13.30;1.00;;;;;;4832713;28;20199;-79
2021/03/15 10:22:21;;;;;;;0.90;0.90;;;13.60;1.00;;;;;;4817754;28;20187;-76
2021/03/15 10:24:51;;;;;;;0.80;0.80;;;13.80;1.00;;;;;;4807375;28;20229;-83
2021/03/15 10:27:19;;;;;;;1.33;1.27;;;13.90;1.00;;;;;;4914325;28;20307;-73
2021/03/15 10:29:42;;;;;;;2.47;0.97;;;14.00;1.00;;;;;;4818965;28;20207;-87
2021/03/15 10:32:06;;;;;;;0.77;0.77;;;13.90;1.00;;;;;;4887054;28;20204;-84
2021/03/15 10:34:28;;;;;;;0.77;0.77;;;13.80;1.00;;;;;;4815778;28;20203;-85
2021/03/15 10:37:01;;;;;;;0.90;0.83;;;13.70;1.00;;;;;;4797780;28;20196;-83
2021/03/15 10:39:54;;;;;;;3.10;1.03;;;13.70;1.00;;;;;;4793671;28;20196;-81
2021/03/15 10:42:21;;;;;;;0.80;0.80;;;13.80;1.00;;;;;;4800703;28;20270;-73
2021/03/15 10:44:44;;;;;;;0.93;0.93;;;14.00;1.00;;;;;;4791271;28;20299;-87
2021/03/15 10:47:08;;;;;;;0.60;0.60;;;14.40;1.00;;;;;;4796212;28;20200;-85
2021/03/15 10:49:34;;;;;;;0.60;0.60;;;15.50;1.00;;;;;;4808790;28;20754;-85
2021/03/15 10:52:28;;;;;;;0.40;0.40;;;16.30;1.00;;;;;;4815074;28;20204;-80
2021/03/15 10:54:50;;;;;;;1.43;0.50;;;16.30;1.00;;;;;;4801729;28;20242;-76
2021/03/15 10:57:18;;;;;;;0.40;0.40;;;15.90;1.00;;;;;;4811990;28;20211;-87
2021/03/15 10:59:44;;;;;;;0.40;0.40;;;15.30;1.00;;;;;;4797057;28;20301;-84
2021/03/15 11:02:22;;;;;;;0.53;0.53;;;14.60;1.00;;;;;;4794685;28;20200;-74
2021/03/15 11:04:56;;;;;;;0.67;0.67;;;13.90;1.00;;;;;;4815033;28;20191;-78
2021/03/15 11:07:37;;;;;;;0.67;0.67;;;13.40;1.00;;;;;;4798494;28;20200;-74
2021/03/15 11:10:08;;;;;;;1.70;0.93;;;12.90;1.00;;;;;;4812960;28;20729;-87
2021/03/15 11:12:43;;;;;;;0.77;0.77;;;12.60;1.00;;;;;;4812459;28;20298;-87
2021/03/15 11:15:08;;;;;;;0.50;0.50;;;12.40;1.00;;;;;;4814445;28;20203;-80
2021/03/15 11:17:32;;;;;;;0.80;0.80;;;12.20;1.00;;;;;;4807482;28;20782;-76
2021/03/15 11:19:57;;;;;;;0.63;0.63;;;12.20;1.00;;;;;;4797602;28;20688;-87
2021/03/15 11:22:28;;;;;;;0.63;0.63;;;12.30;1.00;;;;;;4801032;28;20249;-75
2021/03/15 11:25:08;;;;;;;0.93;0.93;;;12.30;1.00;;;;;;4798968;28;20192;-76
2021/03/15 11:27:36;;;;;;;0.90;0.90;;;12.20;1.00;;;;;;4798035;28;20204;-88
2021/03/15 11:30:05;;;;;;;1.33;1.23;;;12.10;1.00;;;;;;4805509;28;20203;-78
2021/03/15 11:32:43;;;;;;;1.13;1.13;;;12.00;1.00;;;;;;4809292;28;20286;-79
2021/03/15 11:35:20;;;;;;;1.00;1.00;;;11.80;1.00;;;;;;4809362;28;20199;-86
2021/03/15 11:37:51;;;;;;;1.13;1.10;;;11.60;1.00;;;;;;4917799;28;20188;-83
2021/03/15 11:40:31;;;;;;;1.33;1.23;;;11.50;1.00;;;;;;4809471;28;20441;-75
2021/03/15 11:42:55;;;;;;;1.13;1.07;;;11.30;1.00;;;;;;4801518;28;20234;-87
2021/03/15 11:45:18;;;;;;;1.33;1.00;;;11.40;1.00;;;;;;4818934;28;20184;-75
2021/03/15 11:47:43;;;;;;;1.93;1.27;;;11.40;1.00;;;;;;4818421;28;20203;-87
2021/03/15 11:50:19;;;;;;;1.40;1.23;;;11.30;1.00;;;;;;4817853;28;20195;-85
2021/03/15 11:52:53;;;;;;;1.83;1.70;;;11.30;1.00;;;;;;4816554;28;20727;-80
2021/03/15 11:55:20;;;;;;;1.57;1.47;;;11.30;1.00;;;;;;4801161;28;20192;-74
2021/03/15 11:57:43;;;;;;;1.33;1.23;;;11.30;1.00;;;;;;4817411;28;20665;-86
2021/03/15 12:00:07;;;;;;;1.07;1.07;;;11.30;1.00;;;;;;4818326;28;20646;-86
2021/03/15 12:02:41;;;;;;;1.00;1.00;;;11.40;1.00;;;;;;4817108;28;20529;-84
2021/03/15 12:05:10;;;;;;;0.90;0.90;;;11.40;1.00;;;;;;4817625;28;20312;-76
2021/03/15 12:07:34;;;;;;;1.10;1.00;;;11.50;1.00;;;;;;4816818;28;20235;-84
2021/03/15 12:09:59;;;;;;;0.80;0.80;;;11.50;1.00;;;;;;4804685;28;20297;-82
2021/03/15 12:12:23;;;;;;;0.97;0.97;;;11.50;1.00;;;;;;4797674;28;20273;-76
2021/03/15 12:14:54;;;;;;;0.93;0.93;;;11.50;1.00;;;;;;4816477;28;20638;-90
2021/03/15 12:17:16;;;;;;;1.23;1.13;;;11.60;1.00;;;;;;4810464;28;20238;-79
2021/03/15 12:19:39;;;;;;;1.27;1.13;;;11.50;1.00;;;;;;4906655;28;20200;-90
2021/03/15 12:22:12;;;;;;;1.30;1.20;;;11.50;1.00;;;;;;4806952;28;20212;-80
2021/03/15 12:25:06;;;;;;;1.50;1.40;;;11.50;1.00;;;;;;4811975;28;20237;-74
2021/03/15 12:27:36;;;;;;;1.27;1.17;;;11.50;1.00;;;;;;4836324;28;20597;-90
2021/03/15 12:29:59;;;;;;;0.87;0.87;;;11.50;1.00;;;;;;4820243;28;20720;-90
2021/03/15 12:32:22;;;;;;;0.93;0.93;;;11.50;1.00;;;;;;4817970;28;20207;-87
2021/03/15 12:34:44;;;;;;;2.10;1.23;;;11.60;1.00;;;;;;4801879;28;20208;-81
2021/03/15 12:37:12;;;;;;;1.00;0.90;;;11.70;1.00;;;;;;4813393;28;20274;-87
2021/03/15 12:39:36;;;;;;;1.13;0.90;;;11.90;1.00;;;;;;4801236;28;20196;-78
2021/03/15 12:42:06;;;;;;;0.70;0.70;;;12.00;1.00;;;;;;4816975;28;20296;-82
2021/03/15 12:44:36;;;;;;;1.87;0.83;;;12.10;1.00;;;;;;4784051;28;20226;-82
2021/03/15 12:47:01;;;;;;;0.90;0.90;;;12.20;1.00;;;;;;4890007;28;20200;-82
2021/03/15 12:49:30;;;;;;;1.17;1.07;;;12.40;1.00;;;;;;4914634;28;20219;-84
2021/03/15 12:51:53;;;;;;;0.90;0.90;;;12.80;1.00;;;;;;4809230;28;20196;-77